createdAt,value
2018-02-04T00:00:21.100Z,88.33
2018-02-04T00:02:48.832Z,88.68
2018-02-04T00:05:16.370Z,89.01
2018-02-04T00:07:43.949Z,88.83
2018-02-04T00:10:12.502Z,88.81
2018-02-04T00:12:40.134Z,88.44
2018-02-04T00:15:07.684Z,87.44
2018-02-04T00:17:35.337Z,86.97
2018-02-04T00:20:02.856Z,86.94
2018-02-04T00:22:39.305Z,86.84
2018-02-04T00:25:07.602Z,86.63
2018-02-04T00:27:35.217Z,86.59
2018-02-04T00:30:02.819Z,86.71
2018-02-04T00:32:30.336Z,87.94
2018-02-04T00:34:57.856Z,89.52
2018-02-04T00:37:25.435Z,90.07
2018-02-04T00:39:52.982Z,89.44
2018-02-04T00:42:21.480Z,88.50
2018-02-04T00:44:49.007Z,87.93
2018-02-04T00:47:16.546Z,88.44
2018-02-04T00:49:44.070Z,88.92
2018-02-04T00:52:11.650Z,87.97
2018-02-04T00:54:39.451Z,88.17
2018-02-04T00:57:06.992Z,88.54
2018-02-04T00:59:34.536Z,88.22
2018-02-04T01:02:02.047Z,88.55
2018-02-04T01:04:29.562Z,89.01
2018-02-04T01:06:57.341Z,88.94
2018-02-04T01:09:24.849Z,89.30
2018-02-04T01:11:52.422Z,89.47
2018-02-04T01:14:20.095Z,89.60
2018-02-04T01:16:47.740Z,89.94
2018-02-04T01:19:15.280Z,90.02
2018-02-04T01:21:42.865Z,90.74
2018-02-04T01:24:10.384Z,91.53
2018-02-04T01:26:37.917Z,91.54
2018-02-04T01:29:05.436Z,91.03
2018-02-04T01:31:32.970Z,90.79
2018-02-04T01:34:00.556Z,91.08
2018-02-04T01:36:28.151Z,90.86
2018-02-04T01:38:55.844Z,90.66
2018-02-04T01:41:23.547Z,90.10
2018-02-04T01:43:51.270Z,90.86
2018-02-04T01:46:18.796Z,91.53
2018-02-04T01:48:46.309Z,91.05
2018-02-04T01:51:13.846Z,92.20
2018-02-04T01:53:41.360Z,92.83
2018-02-04T01:56:08.971Z,93.08
2018-02-04T01:58:36.489Z,93.06
2018-02-04T02:01:04.036Z,92.75
2018-02-04T02:03:31.576Z,91.80
2018-02-04T02:05:59.123Z,91.83
2018-02-04T02:08:26.654Z,91.70
2018-02-04T02:10:54.240Z,91.48
2018-02-04T02:13:21.790Z,90.61
2018-02-04T02:15:49.330Z,90.21
2018-02-04T02:18:16.844Z,90.02
2018-02-04T02:20:44.365Z,91.40
2018-02-04T02:23:11.894Z,90.80
2018-02-04T02:25:39.411Z,90.60
2018-02-04T02:28:06.930Z,90.72
2018-02-04T02:30:34.460Z,90.84
2018-02-04T02:33:02.031Z,90.97
2018-02-04T02:35:29.637Z,91.08
2018-02-04T02:37:57.230Z,90.43
2018-02-04T02:40:24.727Z,90.45
2018-02-04T02:42:52.334Z,90.01
2018-02-04T02:45:20.387Z,90.20
2018-02-04T02:47:47.940Z,89.60
2018-02-04T02:50:15.457Z,89.98
2018-02-04T02:52:42.982Z,90.31
2018-02-04T02:55:10.634Z,90.35
2018-02-04T02:57:38.635Z,89.96
2018-02-04T03:00:06.126Z,89.67
2018-02-04T03:02:33.690Z,89.27
2018-02-04T03:05:01.240Z,91.05
2018-02-04T03:07:28.820Z,92.17
2018-02-04T03:09:56.401Z,92.99
2018-02-04T03:12:23.939Z,93.14
2018-02-04T03:14:51.454Z,93.07
2018-02-04T03:17:18.986Z,93.02
2018-02-04T03:19:46.504Z,92.89
2018-02-04T03:22:14.075Z,92.40
2018-02-04T03:24:41.780Z,93.17
2018-02-04T03:27:09.324Z,93.88
2018-02-04T03:29:36.905Z,94.35
2018-02-04T03:32:04.534Z,94.14
2018-02-04T03:34:32.037Z,93.55
2018-02-04T03:36:59.590Z,93.17
2018-02-04T03:39:27.109Z,92.32
2018-02-04T03:41:54.807Z,91.88
2018-02-04T03:44:22.532Z,92.18
2018-02-04T03:46:50.041Z,92.41
2018-02-04T03:49:17.562Z,93.92
2018-02-04T03:51:45.067Z,94.58
2018-02-04T03:54:12.706Z,94.96
2018-02-04T03:56:40.220Z,95.27
2018-02-04T03:59:07.876Z,95.30
2018-02-04T04:01:35.385Z,95.02
2018-02-04T04:04:02.996Z,94.93
2018-02-04T04:06:30.582Z,94.74
2018-02-04T04:08:58.302Z,94.29
2018-02-04T04:11:25.897Z,93.79
2018-02-04T04:13:53.412Z,93.85
2018-02-04T04:16:21.015Z,93.03
2018-02-04T04:18:48.605Z,93.62
2018-02-04T04:21:16.180Z,93.75
2018-02-04T04:23:43.701Z,93.67
2018-02-04T04:26:11.245Z,93.91
2018-02-04T04:28:38.870Z,93.97
2018-02-04T04:31:06.486Z,93.47
2018-02-04T04:33:34.009Z,93.53
2018-02-04T04:36:01.554Z,93.50
2018-02-04T04:38:29.527Z,93.63
2018-02-04T04:40:57.312Z,94.38
2018-02-04T04:43:24.825Z,95.60
2018-02-04T04:45:52.347Z,96.07
2018-02-04T04:48:20.361Z,96.00
2018-02-04T04:50:47.867Z,95.22
2018-02-04T04:53:15.409Z,96.27
2018-02-04T04:55:42.923Z,96.38
2018-02-04T04:58:10.440Z,96.87
2018-02-04T05:00:37.972Z,96.84
2018-02-04T05:03:05.486Z,96.43
2018-02-04T05:05:33.057Z,96.16
2018-02-04T05:08:00.564Z,96.08
2018-02-04T05:10:28.128Z,96.86
2018-02-04T05:12:55.672Z,97.29
2018-02-04T05:15:23.200Z,97.50
2018-02-04T05:17:50.757Z,97.48
2018-02-04T05:20:18.325Z,97.29
2018-02-04T05:22:45.886Z,97.06
2018-02-04T05:25:13.422Z,97.08
2018-02-04T05:27:40.931Z,97.53
2018-02-04T05:30:08.481Z,97.69
2018-02-04T05:32:36.176Z,97.70
2018-02-04T05:35:04.676Z,97.78
2018-02-04T05:37:32.411Z,97.60
2018-02-04T05:40:00.090Z,97.59
2018-02-04T05:42:27.607Z,97.47
2018-02-04T05:44:55.137Z,97.30
2018-02-04T05:47:22.696Z,97.00
2018-02-04T05:49:50.236Z,96.94
2018-02-04T05:52:17.767Z,97.01
2018-02-04T05:54:45.407Z,96.97
2018-02-04T05:57:12.996Z,97.05
2018-02-04T05:59:41.544Z,96.80
2018-02-04T06:02:09.072Z,97.00
2018-02-04T06:04:36.673Z,97.46
2018-02-04T06:07:04.307Z,97.53
2018-02-04T06:09:32.675Z,97.67
2018-02-04T06:12:00.211Z,97.74
2018-02-04T06:14:27.778Z,97.65
2018-02-04T06:16:55.430Z,97.48
2018-02-04T06:19:23.014Z,97.76
2018-02-04T06:21:50.658Z,97.74
2018-02-04T06:24:18.182Z,97.93
2018-02-04T06:26:45.853Z,98.44
2018-02-04T06:29:13.371Z,98.61
2018-02-04T06:31:40.895Z,98.40
2018-02-04T06:34:08.477Z,98.54
2018-02-04T06:36:36.022Z,98.65
2018-02-04T06:39:03.623Z,98.40
2018-02-04T06:41:31.197Z,98.11
2018-02-04T06:43:58.711Z,97.75
2018-02-04T06:46:26.301Z,97.76
2018-02-04T06:48:53.833Z,97.64
2018-02-04T06:51:21.375Z,97.48
2018-02-04T06:53:48.900Z,97.73
2018-02-04T06:56:16.437Z,98.12
2018-02-04T06:58:43.982Z,98.25
2018-02-04T07:01:11.516Z,98.35
2018-02-04T07:03:39.083Z,98.13
2018-02-04T07:06:06.697Z,97.74
2018-02-04T07:08:34.313Z,97.40
2018-02-04T07:11:01.902Z,96.88
2018-02-04T07:13:29.456Z,97.20
2018-02-04T07:15:57.203Z,97.01
2018-02-04T07:18:24.751Z,96.51
2018-02-04T07:20:52.418Z,96.63
2018-02-04T07:23:20.291Z,96.42
2018-02-04T07:25:47.813Z,95.96
2018-02-04T07:28:15.446Z,95.35
2018-02-04T07:30:43.066Z,94.60
2018-02-04T07:33:10.684Z,95.46
2018-02-04T07:35:38.298Z,95.89
2018-02-04T07:38:05.876Z,95.94
2018-02-04T07:40:33.412Z,95.92
2018-02-04T07:43:01.085Z,96.20
2018-02-04T07:45:28.681Z,96.50
2018-02-04T07:47:56.511Z,96.18
2018-02-04T07:50:24.126Z,95.54
2018-02-04T07:52:51.772Z,95.60
2018-02-04T07:55:19.354Z,94.49
2018-02-04T07:57:46.871Z,94.17
2018-02-04T08:00:15.187Z,92.59
2018-02-04T08:02:42.783Z,90.94
2018-02-04T08:05:10.313Z,89.98
2018-02-04T08:07:37.949Z,91.52
2018-02-04T08:10:05.601Z,90.30
2018-02-04T08:12:33.248Z,89.82
2018-02-04T08:15:00.773Z,91.64
2018-02-04T08:17:28.304Z,91.35
2018-02-04T08:19:55.977Z,89.79
2018-02-04T08:22:23.523Z,88.95
2018-02-04T08:24:51.136Z,85.78
2018-02-04T08:27:18.742Z,85.31
2018-02-04T08:29:46.318Z,80.44
2018-02-04T08:32:13.846Z,79.65
2018-02-04T08:34:41.387Z,78.65
2018-02-04T08:37:08.933Z,78.42
2018-02-04T08:39:36.465Z,76.86
2018-02-04T08:42:03.996Z,75.16
2018-02-04T08:44:31.518Z,75.48
2018-02-04T08:46:59.041Z,75.64
2018-02-04T08:49:26.581Z,76.04
2018-02-04T08:51:54.203Z,77.13
2018-02-04T08:54:21.806Z,75.18
2018-02-04T08:56:49.461Z,76.10
2018-02-04T08:59:17.003Z,77.03
2018-02-04T09:01:44.527Z,75.63
2018-02-04T09:04:12.177Z,78.58
2018-02-04T09:06:39.725Z,79.86
2018-02-04T09:09:07.308Z,76.73
2018-02-04T09:11:34.837Z,75.91
2018-02-04T09:14:02.473Z,75.32
2018-02-04T09:16:30.067Z,74.83
2018-02-04T09:18:57.745Z,73.37
2018-02-04T09:21:25.291Z,75.24
2018-02-04T09:23:52.810Z,71.08
2018-02-04T09:26:20.502Z,66.54
2018-02-04T09:28:48.141Z,66.56
2018-02-04T09:31:15.752Z,66.84
2018-02-04T09:33:43.254Z,58.58
2018-02-04T09:36:10.769Z,58.15
2018-02-04T09:38:38.292Z,56.81
2018-02-04T09:41:05.821Z,62.63
2018-02-04T09:43:33.341Z,63.17
2018-02-04T09:46:00.999Z,61.23
2018-02-04T09:48:28.823Z,59.99
2018-02-04T09:50:56.532Z,57.79
2018-02-04T09:53:24.173Z,63.33
2018-02-04T09:55:51.711Z,62.90
2018-02-04T09:58:19.244Z,60.25
2018-02-04T10:00:46.786Z,62.39
2018-02-04T10:03:14.312Z,64.84
2018-02-04T10:05:41.821Z,62.93
2018-02-04T10:08:09.375Z,61.37
2018-02-04T10:10:36.949Z,61.62
2018-02-04T10:13:04.573Z,62.64
2018-02-04T10:15:32.127Z,62.96
2018-02-04T10:17:59.702Z,62.75
2018-02-04T10:20:27.206Z,60.84
2018-02-04T10:22:54.863Z,61.13
2018-02-04T10:25:22.545Z,64.00
2018-02-04T10:27:50.094Z,60.89
2018-02-04T10:30:17.656Z,63.20
2018-02-04T10:32:45.321Z,63.12
2018-02-04T10:35:12.846Z,64.80
2018-02-04T10:37:40.396Z,67.18
2018-02-04T10:40:07.904Z,63.21
2018-02-04T10:42:35.553Z,61.10
2018-02-04T10:45:04.291Z,60.18
2018-02-04T10:47:31.988Z,56.62
2018-02-04T10:49:59.598Z,56.20
2018-02-04T10:52:27.116Z,61.36
2018-02-04T10:54:54.642Z,60.57
2018-02-04T10:57:22.362Z,63.80
2018-02-04T10:59:49.886Z,61.27
2018-02-04T11:02:17.408Z,62.25
2018-02-04T11:04:44.943Z,62.57
2018-02-04T11:07:12.502Z,58.19
2018-02-04T11:09:40.224Z,56.11
2018-02-04T11:12:07.808Z,60.01
2018-02-04T11:14:35.443Z,58.75
2018-02-04T11:17:02.996Z,55.22
2018-02-04T11:19:30.522Z,54.39
2018-02-04T11:21:58.200Z,57.74
2018-02-04T11:24:25.718Z,53.33
2018-02-04T11:26:53.377Z,51.41
2018-02-04T11:29:20.917Z,49.43
2018-02-04T11:31:51.227Z,49.69
2018-02-04T11:34:18.810Z,47.64
2018-02-04T11:36:46.424Z,46.44
2018-02-04T11:39:14.040Z,46.29
2018-02-04T11:41:41.655Z,41.01
2018-02-04T11:44:09.194Z,35.46
2018-02-04T11:46:36.723Z,33.96
2018-02-04T11:49:04.359Z,37.91
2018-02-04T11:51:31.880Z,43.83
2018-02-04T11:54:00.216Z,44.38
2018-02-04T11:56:27.825Z,50.49
2018-02-04T11:58:55.344Z,51.42
2018-02-04T12:01:22.868Z,48.50
2018-02-04T12:03:50.452Z,47.48
2018-02-04T12:06:17.972Z,52.76
2018-02-04T12:08:45.502Z,51.06
2018-02-04T12:11:13.141Z,47.97
2018-02-04T12:13:40.697Z,48.51
2018-02-04T12:16:08.254Z,52.89
2018-02-04T12:18:35.774Z,51.71
2018-02-04T12:21:03.301Z,55.50
2018-02-04T12:23:30.854Z,57.39
2018-02-04T12:25:58.637Z,58.75
2018-02-04T12:28:26.276Z,58.00
2018-02-04T12:31:01.377Z,57.28
2018-02-04T12:33:29.011Z,57.32
2018-02-04T12:35:56.599Z,56.85
2018-02-04T12:38:24.243Z,59.28
2018-02-04T12:40:51.950Z,61.10
2018-02-04T12:43:19.515Z,59.51
2018-02-04T12:45:47.057Z,58.90
2018-02-04T12:48:14.696Z,57.65
2018-02-04T12:50:42.636Z,60.29
2018-02-04T12:53:10.236Z,59.86
2018-02-04T12:55:37.757Z,61.17
2018-02-04T12:58:05.399Z,59.79
2018-02-04T13:00:32.931Z,60.10
2018-02-04T13:03:00.521Z,58.01
2018-02-04T13:05:28.168Z,57.21
2018-02-04T13:07:55.766Z,55.67
2018-02-04T13:10:23.282Z,57.43
2018-02-04T13:12:50.818Z,59.71
2018-02-04T13:15:18.352Z,58.51
2018-02-04T13:17:45.925Z,60.07
2018-02-04T13:20:13.447Z,57.82
2018-02-04T13:22:41.155Z,57.78
2018-02-04T13:25:08.660Z,57.37
2018-02-04T13:27:36.296Z,57.52
2018-02-04T13:30:03.868Z,60.10
2018-02-04T13:32:31.408Z,59.81
2018-02-04T13:34:58.937Z,59.02
2018-02-04T13:37:26.702Z,57.63
2018-02-04T13:39:54.337Z,58.49
2018-02-04T13:42:21.858Z,58.09
2018-02-04T13:44:49.407Z,60.07
2018-02-04T13:47:17.526Z,60.43
2018-02-04T13:49:45.049Z,60.87
2018-02-04T13:52:12.557Z,59.46
2018-02-04T13:54:40.088Z,58.75
2018-02-04T13:57:07.737Z,58.16
2018-02-04T13:59:35.353Z,59.42
2018-02-04T14:02:02.985Z,59.68
2018-02-04T14:04:30.566Z,59.74
2018-02-04T14:06:58.354Z,59.03
2018-02-04T14:09:25.906Z,60.34
2018-02-04T14:11:53.478Z,60.16
2018-02-04T14:14:21.037Z,58.33
2018-02-04T14:16:50.382Z,55.34
2018-02-04T14:19:17.935Z,51.85
2018-02-04T14:21:45.489Z,52.95
2018-02-04T14:24:13.012Z,51.79
2018-02-04T14:26:40.657Z,51.01
2018-02-04T14:29:08.188Z,53.30
2018-02-04T14:31:35.702Z,55.51
2018-02-04T14:34:03.253Z,59.11
2018-02-04T14:36:30.815Z,60.92
2018-02-04T14:38:58.348Z,63.85
2018-02-04T14:41:25.897Z,68.14
2018-02-04T14:43:53.462Z,72.70
2018-02-04T14:46:21.017Z,75.87
2018-02-04T14:48:48.628Z,76.57
2018-02-04T14:51:16.190Z,77.68
2018-02-04T14:53:43.749Z,78.81
2018-02-04T14:56:11.368Z,80.04
2018-02-04T14:58:38.969Z,79.81
2018-02-04T15:01:06.532Z,79.88
2018-02-04T15:03:34.075Z,81.12
2018-02-04T15:06:01.724Z,81.94
2018-02-04T15:08:29.265Z,82.74
2018-02-04T15:10:56.930Z,82.63
2018-02-04T15:13:24.586Z,82.81
2018-02-04T15:15:53.010Z,82.53
2018-02-04T15:18:20.591Z,84.07
2018-02-04T15:20:48.299Z,84.52
2018-02-04T15:23:15.929Z,85.31
2018-02-04T15:25:43.466Z,83.09
2018-02-04T15:28:11.187Z,82.62
2018-02-04T15:30:38.724Z,84.30
2018-02-04T15:33:06.258Z,85.73
2018-02-04T15:35:33.779Z,84.32
2018-02-04T15:38:01.367Z,83.58
2018-02-04T15:40:29.089Z,83.90
2018-02-04T15:42:56.670Z,83.33
2018-02-04T15:45:24.250Z,81.93
2018-02-04T15:47:51.803Z,84.02
2018-02-04T15:50:19.349Z,84.67
2018-02-04T15:52:46.980Z,84.01
2018-02-04T15:55:14.610Z,84.27
2018-02-04T15:57:42.235Z,83.73
2018-02-04T16:00:09.739Z,84.64
2018-02-04T16:02:38.257Z,83.67
2018-02-04T16:05:05.853Z,84.64
2018-02-04T16:07:33.399Z,84.53
2018-02-04T16:10:00.960Z,83.85
2018-02-04T16:12:28.498Z,84.53
2018-02-04T16:14:56.232Z,85.09
2018-02-04T16:17:23.832Z,85.78
2018-02-04T16:19:51.437Z,85.08
2018-02-04T16:22:19.157Z,86.52
2018-02-04T16:24:46.688Z,86.86
2018-02-04T16:27:14.243Z,87.78
2018-02-04T16:29:41.780Z,86.70
2018-02-04T16:32:09.609Z,86.35
2018-02-04T16:34:37.397Z,86.94
2018-02-04T16:37:05.020Z,87.62
2018-02-04T16:39:32.618Z,87.74
2018-02-04T16:42:00.144Z,87.72
2018-02-04T16:44:27.683Z,86.60
2018-02-04T16:46:55.406Z,86.31
2018-02-04T16:49:22.963Z,85.79
2018-02-04T16:51:50.643Z,85.94
2018-02-04T16:54:18.199Z,86.18
2018-02-04T16:56:45.757Z,85.33
2018-02-04T16:59:13.419Z,85.70
2018-02-04T17:01:41.153Z,85.20
2018-02-04T17:04:08.888Z,84.85
2018-02-04T17:06:36.659Z,85.70
2018-02-04T17:09:05.527Z,85.37
2018-02-04T17:11:33.079Z,85.28
2018-02-04T17:14:00.706Z,85.82
2018-02-04T17:16:28.413Z,86.12
2018-02-04T17:18:55.955Z,84.34
2018-02-04T17:21:23.488Z,84.84
2018-02-04T17:23:51.038Z,84.83
2018-02-04T17:26:19.690Z,83.89
2018-02-04T17:28:47.389Z,84.25
2018-02-04T17:31:14.979Z,84.81
2018-02-04T17:33:42.520Z,84.31
2018-02-04T17:36:10.074Z,85.08
2018-02-04T17:38:37.838Z,84.66
2018-02-04T17:41:05.428Z,84.25
2018-02-04T17:43:32.963Z,84.63
2018-02-04T17:46:00.578Z,84.91
2018-02-04T17:48:28.202Z,85.20
2018-02-04T17:50:55.836Z,84.57
2018-02-04T17:53:23.476Z,85.53
2018-02-04T17:55:51.150Z,86.34
2018-02-04T17:58:18.747Z,85.34
2018-02-04T18:00:46.358Z,85.56
2018-02-04T18:03:14.047Z,84.81
2018-02-04T18:05:41.663Z,86.20
2018-02-04T18:08:09.816Z,86.49
2018-02-04T18:10:37.471Z,85.63
2018-02-04T18:13:05.019Z,85.48
2018-02-04T18:15:32.720Z,85.06
2018-02-04T18:18:00.278Z,85.48
2018-02-04T18:20:27.902Z,85.82
2018-02-04T18:22:55.540Z,86.36
2018-02-04T18:25:23.365Z,86.78
2018-02-04T18:27:51.029Z,87.26
2018-02-04T18:30:19.558Z,87.23
2018-02-04T18:32:48.187Z,87.03
2018-02-04T18:35:15.803Z,86.46
2018-02-04T18:37:43.404Z,87.07
2018-02-04T18:40:10.943Z,87.30
2018-02-04T18:42:38.623Z,87.38
2018-02-04T18:45:06.160Z,87.19
2018-02-04T18:47:33.782Z,86.74
2018-02-04T18:50:01.505Z,86.25
2018-02-04T18:52:29.048Z,86.94
2018-02-04T18:54:56.582Z,86.73
2018-02-04T18:57:24.204Z,86.65
2018-02-04T18:59:51.894Z,86.32
2018-02-04T19:02:19.624Z,86.14
2018-02-04T19:04:47.285Z,85.26
2018-02-04T19:07:14.814Z,85.83
2018-02-04T19:09:42.505Z,85.14
2018-02-04T19:12:10.063Z,86.45
2018-02-04T19:14:37.683Z,86.94
2018-02-04T19:17:05.335Z,86.78
2018-02-04T19:19:32.943Z,87.38
2018-02-04T19:22:00.631Z,87.42
2018-02-04T19:24:28.190Z,87.11
2018-02-04T19:26:55.892Z,87.55
2018-02-04T19:29:23.429Z,87.65
2018-02-04T19:31:51.019Z,87.80
2018-02-04T19:34:18.585Z,87.09
2018-02-04T19:36:46.154Z,87.24
2018-02-04T19:39:13.804Z,86.39
2018-02-04T19:41:41.459Z,87.12
2018-02-04T19:44:09.059Z,85.97
2018-02-04T19:46:36.740Z,86.33
2018-02-04T19:49:04.750Z,86.86
2018-02-04T19:51:32.432Z,86.10
2018-02-04T19:53:59.968Z,86.53
2018-02-04T19:56:27.683Z,85.80
2018-02-04T19:58:55.218Z,85.91
2018-02-04T20:01:22.747Z,86.21
2018-02-04T20:03:50.369Z,86.27
2018-02-04T20:06:18.418Z,86.10
2018-02-04T20:08:46.264Z,85.50
2018-02-04T20:11:13.987Z,85.73
2018-02-04T20:13:41.611Z,85.44
2018-02-04T20:16:09.274Z,86.42
2018-02-04T20:18:36.899Z,86.43
2018-02-04T20:21:04.529Z,86.89
2018-02-04T20:23:32.152Z,86.43
2018-02-04T20:25:59.784Z,86.44
2018-02-04T20:28:27.372Z,86.83
2018-02-04T20:30:55.002Z,87.07
2018-02-04T20:33:23.700Z,86.44
2018-02-04T20:35:51.346Z,85.52
2018-02-04T20:38:19.944Z,85.47
2018-02-04T20:40:47.685Z,85.88
2018-02-04T20:43:15.393Z,86.45
2018-02-04T20:45:43.364Z,86.10
2018-02-04T20:48:10.926Z,86.27
2018-02-04T20:50:38.788Z,87.01
2018-02-04T20:53:06.460Z,87.17
2018-02-04T20:55:34.003Z,86.77
2018-02-04T20:58:01.930Z,86.84
2018-02-04T21:00:29.562Z,87.38
2018-02-04T21:02:57.276Z,87.51
2018-02-04T21:05:24.823Z,88.05
2018-02-04T21:07:52.620Z,88.39
2018-02-04T21:10:20.169Z,87.68
2018-02-04T21:12:47.834Z,87.83
2018-02-04T21:15:15.438Z,87.71
2018-02-04T21:17:43.134Z,87.70
2018-02-04T21:20:10.977Z,88.17
2018-02-04T21:22:38.983Z,88.95
2018-02-04T21:25:06.560Z,89.40
2018-02-04T21:27:34.167Z,89.84
2018-02-04T21:30:01.749Z,90.39
2018-02-04T21:32:29.633Z,90.09
2018-02-04T21:34:57.236Z,89.93
2018-02-04T21:37:24.879Z,89.80
2018-02-04T21:39:52.713Z,89.54
2018-02-04T21:42:20.579Z,89.98
2018-02-04T21:44:48.399Z,90.64
2018-02-04T21:47:15.970Z,91.00
2018-02-04T21:49:43.492Z,91.55
2018-02-04T21:52:11.074Z,91.98
2018-02-04T21:54:38.700Z,91.98
2018-02-04T21:57:06.348Z,89.72
2018-02-04T21:59:33.959Z,90.53
2018-02-04T22:02:01.609Z,91.19
2018-02-04T22:04:29.169Z,90.76
2018-02-04T22:06:56.815Z,90.06
2018-02-04T22:09:24.474Z,90.96
2018-02-04T22:11:52.105Z,91.22
2018-02-04T22:14:21.034Z,89.99
2018-02-04T22:16:48.582Z,91.43
2018-02-04T22:19:16.579Z,92.27
2018-02-04T22:21:44.127Z,92.51
2018-02-04T22:24:11.735Z,92.12
2018-02-04T22:26:39.312Z,91.37
2018-02-04T22:29:06.897Z,91.53
2018-02-04T22:31:34.442Z,91.64
2018-02-04T22:34:02.039Z,91.62
2018-02-04T22:36:29.569Z,91.44
2018-02-04T22:38:57.168Z,89.93
2018-02-04T22:41:24.960Z,90.93
2018-02-04T22:43:52.589Z,91.46
2018-02-04T22:46:20.099Z,90.34
2018-02-04T22:48:47.733Z,89.75
2018-02-04T22:51:15.267Z,89.87
2018-02-04T22:53:42.793Z,89.77
2018-02-04T22:56:10.330Z,90.51
2018-02-04T22:58:37.907Z,90.92
2018-02-04T23:01:05.450Z,91.28
2018-02-04T23:03:33.058Z,90.24
2018-02-04T23:06:00.639Z,89.52
2018-02-04T23:08:28.276Z,89.73
2018-02-04T23:10:55.897Z,89.62
2018-02-04T23:13:23.517Z,89.70
2018-02-04T23:15:51.074Z,88.95
2018-02-04T23:18:18.619Z,88.50
2018-02-04T23:20:46.540Z,88.61
2018-02-04T23:23:14.180Z,88.41
2018-02-04T23:25:41.710Z,88.67
2018-02-04T23:28:09.232Z,88.45
2018-02-04T23:30:36.880Z,88.43
2018-02-04T23:33:04.403Z,89.61
2018-02-04T23:35:31.945Z,88.60
2018-02-04T23:37:59.474Z,88.39
2018-02-04T23:40:27.534Z,89.25
2018-02-04T23:42:55.127Z,89.58
2018-02-04T23:45:22.648Z,89.16
2018-02-04T23:47:50.218Z,89.09
2018-02-04T23:50:17.816Z,88.96
2018-02-04T23:52:45.353Z,89.43
2018-02-04T23:55:12.864Z,89.09
2018-02-04T23:57:40.390Z,88.81
